Time;durP1;ratioP1;P1;durP2;ratioP2;P2;SDS_P1;SDS_P2;PMS_P1;PMS_P2;Temp;Humidity;BMP_temperature;BMP_pressure;BME280_temperature;BME280_humidity;BME280_pressure;Samples;Min_cycle;Max_cycle;Signal;HPM_P1;HPM_P2
2022/04/09 00:01:45;;;;;;;;;;;;;;;24.80;35.91;92545.50;4955874;28;7076;-62
2022/04/09 00:04:11;;;;;;;;;;;;;;;24.77;36.38;92557.59;4953836;28;9089;-62
2022/04/09 00:06:51;;;;;;;;;;;;;;;24.79;36.77;92555.78;4937760;28;9187;-62
2022/04/09 00:09:18;;;;;;;;;;;;;;;24.79;36.38;92558.53;4955352;28;7361;-61
2022/04/09 00:11:56;;;;;;;;;;;;;;;24.80;36.48;92556.50;4939185;28;7313;-62
2022/04/09 00:14:23;;;;;;;;;;;;;;;24.80;36.51;92559.25;4933693;28;9060;-62
2022/04/09 00:16:49;;;;;;;;;;;;;;;24.79;36.67;92555.78;4953335;28;9322;-62
2022/04/09 00:19:24;;;;;;;;;;;;;;;24.79;36.86;92568.78;4953940;28;7175;-62
2022/04/09 00:22:02;;;;;;;;;;;;;;;24.79;36.85;92580.53;4929960;28;9103;-62
2022/04/09 00:24:30;;;;;;;;;;;;;;;24.79;36.26;92580.53;4942684;28;9122;-62
2022/04/09 00:26:56;;;;;;;;;;;;;;;24.78;36.40;92583.81;4943434;28;9422;-62
2022/04/09 00:29:29;;;;;;;;;;;;;;;24.78;36.36;92581.78;4937115;28;8627;-61
2022/04/09 00:31:57;;;;;;;;;;;;;;;24.78;36.17;92584.53;4953819;28;9338;-61
2022/04/09 00:34:24;;;;;;;;;;;;;;;24.78;36.60;92592.78;4919820;28;9070;-62
2022/04/09 00:36:59;;;;;;;;;;;;;;;24.78;36.78;92606.53;4936628;28;7317;-62
2022/04/09 00:39:25;;;;;;;;;;;;;;;24.79;36.23;92610.03;4936745;28;7038;-61
2022/04/09 00:41:51;;;;;;;;;;;;;;;24.80;36.67;92608.72;4938073;28;9460;-62
2022/04/09 00:44:20;;;;;;;;;;;;;;;24.79;36.39;92626.53;4931948;28;9521;-61
2022/04/09 00:46:47;;;;;;;;;;;;;;;24.79;36.40;92626.53;4938516;28;7865;-61
2022/04/09 00:49:14;;;;;;;;;;;;;;;24.78;36.79;92649.78;4937611;28;7169;-61
2022/04/09 00:51:44;;;;;;;;;;;;;;;24.79;37.40;92651.28;4946282;28;9152;-61
2022/04/09 00:54:22;;;;;;;;;;;;;;;24.79;37.19;92662.25;4928969;28;7347;-62
2022/04/09 00:56:54;;;;;;;;;;;;;;;24.78;36.84;92666.28;4934776;29;9167;-61
2022/04/09 00:59:28;;;;;;;;;;;;;;;24.77;36.86;92665.56;4947058;28;9012;-61
2022/04/09 01:01:54;;;;;;;;;;;;;;;24.78;36.78;92680.03;4919336;29;9479;-62
2022/04/09 01:04:21;;;;;;;;;;;;;;;24.77;36.70;92686.81;4931434;29;9406;-61
2022/04/09 01:06:59;;;;;;;;;;;;;;;24.78;36.56;92702.78;4937654;28;9467;-62
2022/04/09 01:09:27;;;;;;;;;;;;;;;24.77;37.12;92703.31;4953752;28;6996;-62
2022/04/09 01:12:01;;;;;;;;;;;;;;;24.76;36.49;92699.84;4941086;28;9050;-61
2022/04/09 01:14:30;;;;;;;;;;;;;;;24.76;36.71;92712.84;4932804;29;8765;-62
2022/04/09 01:17:05;;;;;;;;;;;;;;;24.76;36.59;92715.59;4938181;28;9779;-62
2022/04/09 01:19:43;;;;;;;;;;;;;;;24.76;36.70;92745.84;4938195;29;7123;-61
2022/04/09 01:22:09;;;;;;;;;;;;;;;24.77;37.08;92752.81;4943459;29;8253;-61
2022/04/09 01:24:36;;;;;;;;;;;;;;;24.76;37.06;92745.84;4937285;29;9111;-61
2022/04/09 01:27:13;;;;;;;;;;;;;;;24.77;37.33;92774.81;4961474;28;7265;-62
2022/04/09 01:29:43;;;;;;;;;;;;;;;24.76;36.57;92776.81;4937467;29;10293;-62
2022/04/09 01:32:40;;;;;;;;;;;;;;;24.78;36.62;92792.75;4935142;29;7630;-62
2022/04/09 01:35:08;;;;;;;;;;;;;;;24.77;36.97;92824.31;4924990;29;7029;-61
2022/04/09 01:37:38;;;;;;;;;;;;;;;24.77;37.11;92829.81;4937055;29;7120;-61
2022/04/09 01:40:24;;;;;;;;;;;;;;;24.77;36.54;92824.31;4932542;28;9120;-61
2022/04/09 01:43:08;;;;;;;;;;;;;;;24.76;36.64;92840.06;4951057;28;8950;-61
2022/04/09 01:45:47;;;;;;;;;;;;;;;24.77;36.88;92838.06;4938644;28;6980;-62
2022/04/09 01:48:35;;;;;;;;;;;;;;;24.75;36.62;92857.81;4939263;28;7591;-62
2022/04/09 01:51:13;;;;;;;;;;;;;;;24.76;37.02;92847.56;4934346;28;9712;-61
2022/04/09 01:54:05;;;;;;;;;;;;;;;24.73;36.67;92856.88;4939998;28;9394;-62
2022/04/09 01:56:46;;;;;;;;;;;;;;;24.75;36.80;92863.31;4937834;29;7306;-61
2022/04/09 01:59:14;;;;;;;;;;;;;;;24.71;36.95;92874.66;4949937;28;9126;-62
2022/04/09 02:01:41;;;;;;;;;;;;;;;24.73;37.32;92894.09;4949487;28;7499;-62
2022/04/09 02:04:07;;;;;;;;;;;;;;;24.75;37.05;92892.84;4938643;28;7241;-61
2022/04/09 02:06:35;;;;;;;;;;;;;;;24.73;36.81;92894.09;4931146;28;7196;-61
2022/04/09 02:09:13;;;;;;;;;;;;;;;24.71;37.07;92918.63;4940292;28;8879;-61
2022/04/09 02:11:48;;;;;;;;;;;;;;;24.75;37.06;92914.84;4940766;28;8709;-61
2022/04/09 02:14:28;;;;;;;;;;;;;;;24.76;37.05;92921.81;4943871;28;9393;-61
2022/04/09 02:17:04;;;;;;;;;;;;;;;24.76;37.21;92935.56;4943662;28;7011;-61
2022/04/09 02:19:30;;;;;;;;;;;;;;;24.74;36.83;92969.06;4952594;28;7009;-61
2022/04/09 02:21:59;;;;;;;;;;;;;;;24.73;37.20;92954.56;4934768;28;7467;-61
2022/04/09 02:24:28;;;;;;;;;;;;;;;24.75;37.29;92980.84;4935529;28;9424;-62
2022/04/09 02:26:54;;;;;;;;;;;;;;;24.74;37.29;92977.31;4934163;28;9392;-62
2022/04/09 02:29:20;;;;;;;;;;;;;;;24.71;37.22;92992.88;4934549;28;9470;-61
2022/04/09 02:31:46;;;;;;;;;;;;;;;24.75;36.78;93011.09;4936251;28;7486;-62
2022/04/09 02:34:12;;;;;;;;;;;;;;;24.72;36.89;93040.34;4939855;28;8760;-62
2022/04/09 02:36:40;;;;;;;;;;;;;;;24.73;37.11;93054.84;4957991;28;8780;-62
2022/04/09 02:39:06;;;;;;;;;;;;;;;24.75;37.91;93077.06;4936697;28;7088;-62
2022/04/09 02:41:32;;;;;;;;;;;;;;;24.70;37.14;93075.91;4927839;29;9068;-62
2022/04/09 02:43:59;;;;;;;;;;;;;;;24.68;37.31;93076.41;4950811;28;9099;-62
2022/04/09 02:46:25;;;;;;;;;;;;;;;24.70;37.28;93082.16;4962048;28;7276;-62
2022/04/09 02:48:51;;;;;;;;;;;;;;;24.69;37.39;93094.41;4940690;28;7151;-61
2022/04/09 02:51:18;;;;;;;;;;;;;;;24.69;37.09;93101.91;4926122;28;9083;-62
2022/04/09 02:53:48;;;;;;;;;;;;;;;24.70;37.60;93117.16;4939420;28;9183;-61
2022/04/09 02:56:14;;;;;;;;;;;;;;;24.70;37.10;93122.66;4951675;28;9131;-62
2022/04/09 02:58:40;;;;;;;;;;;;;;;24.73;37.30;93134.59;4930676;28;7140;-61
2022/04/09 03:01:06;;;;;;;;;;;;;;;24.72;37.13;93133.84;4937347;28;7086;-62
2022/04/09 03:03:32;;;;;;;;;;;;;;;24.73;37.21;93136.06;4939009;28;7080;-61
2022/04/09 03:06:05;;;;;;;;;;;;;;;24.73;37.50;93157.31;4939857;28;7013;-61
2022/04/09 03:08:31;;;;;;;;;;;;;;;24.73;36.59;93164.84;4939587;28;7641;-62
2022/04/09 03:11:09;;;;;;;;;;;;;;;24.75;37.19;93184.31;4955586;28;9088;-61
2022/04/09 03:13:35;;;;;;;;;;;;;;;24.73;37.59;93182.03;4939309;28;9070;-61
2022/04/09 03:16:08;;;;;;;;;;;;;;;24.73;37.60;93187.53;4947215;28;9104;-61
2022/04/09 03:18:34;;;;;;;;;;;;;;;24.74;37.42;93183.53;4937085;28;7197;-61
2022/04/09 03:21:02;;;;;;;;;;;;;;;24.73;37.55;93215.78;4939342;28;9112;-62
2022/04/09 03:23:28;;;;;;;;;;;;;;;24.74;37.55;93224.78;4925671;28;7262;-61
2022/04/09 03:25:57;;;;;;;;;;;;;;;24.73;36.94;93237.03;4949494;28;7047;-61
2022/04/09 03:28:23;;;;;;;;;;;;;;;24.71;37.46;93254.06;4937801;28;7294;-61
2022/04/09 03:30:49;;;;;;;;;;;;;;;24.70;36.77;93241.63;4938668;28;6868;-62
2022/04/09 03:33:16;;;;;;;;;;;;;;;24.71;37.15;93251.31;4952261;28;6832;-61
2022/04/09 03:35:42;;;;;;;;;;;;;;;24.73;37.21;93256.28;4916167;29;9220;-61
2022/04/09 03:38:14;;;;;;;;;;;;;;;24.73;37.05;93270.03;4942117;28;9150;-62
2022/04/09 03:40:43;;;;;;;;;;;;;;;24.73;37.17;93279.03;4945866;28;7583;-61
2022/04/09 03:43:12;;;;;;;;;;;;;;;24.73;37.70;93281.78;4938127;28;9079;-61
2022/04/09 03:45:38;;;;;;;;;;;;;;;24.73;37.10;93311.28;4932636;28;8753;-61
2022/04/09 03:48:08;;;;;;;;;;;;;;;24.69;37.33;93308.13;4925092;29;7274;-61
2022/04/09 03:50:36;;;;;;;;;;;;;;;24.70;37.20;93298.63;4951478;28;8741;-62
2022/04/09 03:53:05;;;;;;;;;;;;;;;24.73;37.22;93327.06;4933373;28;9436;-62
2022/04/09 03:55:34;;;;;;;;;;;;;;;24.71;36.89;93331.06;4928151;28;9046;-62
2022/04/09 03:58:30;;;;;;;;;;;;;;;24.73;37.19;93336.78;4945395;28;9085;-62
2022/04/09 04:00:56;;;;;;;;;;;;;;;24.73;37.43;93317.53;4881976;29;7263;-62
2022/04/09 04:03:22;;;;;;;;;;;;;;;24.73;37.35;93350.53;4874572;29;6935;-61
2022/04/09 04:05:50;;;;;;;;;;;;;;;24.73;36.98;93366.28;4860912;29;7235;-60
2022/04/09 04:08:16;;;;;;;;;;;;;;;24.68;37.22;93367.88;4871812;29;7310;-60
2022/04/09 04:10:44;;;;;;;;;;;;;;;24.69;37.08;93372.09;4872286;29;9053;-61
2022/04/09 04:13:11;;;;;;;;;;;;;;;24.69;36.82;93383.09;4870928;29;7367;-61
2022/04/09 04:15:40;;;;;;;;;;;;;;;24.73;37.14;93401.31;4872242;29;7276;-60
2022/04/09 04:18:11;;;;;;;;;;;;;;;24.73;37.98;93411.03;4871484;29;7281;-61
2022/04/09 04:20:37;;;;;;;;;;;;;;;24.71;37.29;93416.31;4871596;29;7451;-61
2022/04/09 04:23:03;;;;;;;;;;;;;;;24.71;37.17;93421.81;4855546;29;9050;-61
2022/04/09 04:25:29;;;;;;;;;;;;;;;24.73;36.70;93423.31;4871759;29;7236;-61
2022/04/09 04:27:55;;;;;;;;;;;;;;;24.73;37.06;93437.78;4873009;29;8664;-61
2022/04/09 04:30:21;;;;;;;;;;;;;;;24.71;36.49;93446.56;4856115;29;9043;-61
2022/04/09 04:32:49;;;;;;;;;;;;;;;24.69;36.75;93451.84;4871352;29;7436;-61
2022/04/09 04:35:15;;;;;;;;;;;;;;;24.73;36.42;93461.81;4872156;29;7247;-61
2022/04/09 04:37:45;;;;;;;;;;;;;;;24.70;36.83;93469.84;4904295;28;7035;-61
2022/04/09 04:40:15;;;;;;;;;;;;;;;24.70;36.10;93475.34;4932056;28;9375;-61
2022/04/09 04:42:41;;;;;;;;;;;;;;;24.71;36.15;93478.81;4929051;28;7139;-61
2022/04/09 04:45:10;;;;;;;;;;;;;;;24.71;36.41;93490.56;4931639;28;7237;-61
2022/04/09 04:47:47;;;;;;;;;;;;;;;24.71;37.19;93498.06;4920905;28;9313;-61
2022/04/09 04:50:19;;;;;;;;;;;;;;;24.70;37.14;93502.09;4946420;28;8436;-61
2022/04/09 04:52:46;;;;;;;;;;;;;;;24.70;36.96;93502.09;4926129;28;9460;-61
2022/04/09 04:55:12;;;;;;;;;;;;;;;24.71;36.57;93509.81;4951397;28;7165;-61
2022/04/09 04:57:44;;;;;;;;;;;;;;;24.72;37.20;93521.56;4953903;28;7617;-61
2022/04/09 05:00:12;;;;;;;;;;;;;;;24.70;36.77;93524.09;4933682;28;7238;-61
2022/04/09 05:02:38;;;;;;;;;;;;;;;24.69;36.77;93544.59;4942279;28;7227;-61
2022/04/09 05:05:07;;;;;;;;;;;;;;;24.66;36.62;93540.88;4937160;28;7456;-61
2022/04/09 05:07:53;;;;;;;;;;;;;;;24.69;36.42;93547.34;4955037;28;7142;-61
2022/04/09 05:10:25;;;;;;;;;;;;;;;24.68;36.83;93548.63;4936299;28;6862;-61
2022/04/09 05:13:03;;;;;;;;;;;;;;;24.69;36.58;93561.84;4938703;28;7010;-61
2022/04/09 05:15:44;;;;;;;;;;;;;;;24.69;36.41;93566.59;4932690;28;7423;-61
2022/04/09 05:18:21;;;;;;;;;;;;;;;24.69;36.38;93581.09;4932987;28;9310;-61
2022/04/09 05:21:24;;;;;;;;;;;;;;;24.69;35.83;93578.34;4950035;28;9242;-61
2022/04/09 05:24:24;;;;;;;;;;;;;;;24.70;36.23;93573.59;4913970;29;9113;-61
2022/04/09 05:26:54;;;;;;;;;;;;;;;24.69;36.09;93577.59;4827072;29;9204;-61
2022/04/09 05:29:29;;;;;;;;;;;;;;;24.68;36.08;93576.13;4849275;29;7089;-61
2022/04/09 05:32:05;;;;;;;;;;;;;;;24.68;36.17;93587.13;4841918;29;7324;-61
2022/04/09 05:35:04;;;;;;;;;;;;;;;24.69;35.67;93597.59;4834352;29;6994;-61
2022/04/09 05:37:31;;;;;;;;;;;;;;;24.70;36.17;93601.84;4756809;30;7228;-61
2022/04/09 05:40:02;;;;;;;;;;;;;;;24.69;35.92;93605.84;4767111;30;7206;-60
2022/04/09 05:42:46;;;;;;;;;;;;;;;24.70;35.70;93601.09;4765427;30;9021;-61
2022/04/09 05:45:24;;;;;;;;;;;;;;;24.68;35.73;93620.84;4760924;30;9382;-60
2022/04/09 05:47:51;;;;;;;;;;;;;;;24.66;35.97;93609.63;4766676;30;9071;-60
2022/04/09 05:50:35;;;;;;;;;;;;;;;24.64;35.81;93609.41;4751633;30;9313;-61
2022/04/09 05:53:02;;;;;;;;;;;;;;;24.66;36.38;93611.66;4751516;30;9083;-60
2022/04/09 05:55:47;;;;;;;;;;;;;;;24.65;35.94;93613.66;4752173;30;7453;-61
2022/04/09 05:58:14;;;;;;;;;;;;;;;24.66;35.70;93623.38;4760475;30;8650;-61
2022/04/09 06:00:42;;;;;;;;;;;;;;;24.66;36.05;93619.91;4762518;29;7059;-61
2022/04/09 06:03:08;;;;;;;;;;;;;;;24.65;36.54;93626.66;4816007;29;9075;-61
2022/04/09 06:05:39;;;;;;;;;;;;;;;24.65;35.82;93638.41;4832607;29;8744;-61
2022/04/09 06:08:07;;;;;;;;;;;;;;;24.66;36.15;93639.88;4833015;29;8977;-61
2022/04/09 06:10:34;;;;;;;;;;;;;;;24.66;35.96;93645.38;4833193;29;8794;-61
2022/04/09 06:12:59;;;;;;;;;;;;;;;24.67;36.04;93644.13;4883084;29;9076;-61
2022/04/09 06:15:35;;;;;;;;;;;;;;;24.67;36.26;93652.38;4928493;29;8765;-61
2022/04/09 06:18:07;;;;;;;;;;;;;;;24.67;36.49;93666.13;4934105;29;7291;-61
2022/04/09 06:20:33;;;;;;;;;;;;;;;24.64;36.47;93664.41;4938557;29;7514;-61
2022/04/09 06:23:01;;;;;;;;;;;;;;;24.59;36.51;93665.22;4930521;29;9054;-61
2022/04/09 06:25:33;;;;;;;;;;;;;;;24.59;36.76;93664.50;4927588;29;9593;-61
2022/04/09 06:28:09;;;;;;;;;;;;;;;24.54;36.88;93671.53;4943436;28;7594;-61
2022/04/09 06:30:37;;;;;;;;;;;;;;;24.58;37.03;93671.97;4933543;28;7184;-61
2022/04/09 06:33:04;;;;;;;;;;;;;;;24.60;36.86;93671.47;4925022;28;9186;-61
2022/04/09 06:35:32;;;;;;;;;;;;;;;24.62;36.88;93675.16;4936016;28;7207;-61
2022/04/09 06:38:02;;;;;;;;;;;;;;;24.62;35.68;93674.44;4941704;28;7554;-61
2022/04/09 06:40:29;;;;;;;;;;;;;;;24.61;35.70;93675.69;4939249;28;7514;-61
2022/04/09 06:43:02;;;;;;;;;;;;;;;24.53;34.60;93663.81;4937294;28;9083;-61
2022/04/09 06:45:36;;;;;;;;;;;;;;;24.49;34.28;93672.34;4941632;28;8566;-61
2022/04/09 06:48:04;;;;;;;;;;;;;;;24.46;33.77;93680.91;4946917;28;6998;-61
2022/04/09 06:50:35;;;;;;;;;;;;;;;24.48;33.73;93681.13;4938217;28;6861;-61
2022/04/09 06:53:10;;;;;;;;;;;;;;;24.49;33.16;93680.59;4939081;28;8929;-61
2022/04/09 06:55:53;;;;;;;;;;;;;;;24.45;31.85;93691.16;4930371;28;9106;-61
2022/04/09 06:58:39;;;;;;;;;;;;;;;24.43;32.23;93679.94;4961724;28;7532;-61
2022/04/09 07:01:05;;;;;;;;;;;;;;;24.41;32.16;93685.22;4935049;28;9102;-61
2022/04/09 07:03:34;;;;;;;;;;;;;;;24.33;32.64;93697.31;4941431;28;7035;-61
2022/04/09 07:06:18;;;;;;;;;;;;;;;24.31;32.92;93703.34;4943031;28;9483;-62
2022/04/09 07:09:06;;;;;;;;;;;;;;;24.27;33.15;93715.88;4954937;28;7037;-62
2022/04/09 07:11:32;;;;;;;;;;;;;;;24.22;33.12;93711.94;4955109;28;9039;-62
2022/04/09 07:14:16;;;;;;;;;;;;;;;24.24;33.09;93720.41;4934912;28;8908;-62
2022/04/09 07:17:03;;;;;;;;;;;;;;;24.27;33.83;93715.88;4937763;28;6992;-61
2022/04/09 07:19:29;;;;;;;;;;;;;;;24.27;33.72;93713.88;4936388;28;8347;-61
2022/04/09 07:22:01;;;;;;;;;;;;;;;24.27;33.53;93722.09;4947969;28;7215;-61
2022/04/09 07:24:28;;;;;;;;;;;;;;;;;;4933001;28;8902;-61
2022/04/09 07:27:00;;;;;;;;;;;;;;;;;;4938989;28;9109;-61
2022/04/09 07:29:35;;;;;;;;;;;;;;;24.21;34.52;93726.94;4937108;28;9202;-60
2022/04/09 07:32:05;;;;;;;;;;;;;;;24.21;34.07;93737.91;4935182;28;7046;-61
2022/04/09 07:34:35;;;;;;;;;;;;;;;24.26;34.52;93731.63;4952718;28;8873;-61
2022/04/09 07:37:03;;;;;;;;;;;;;;;24.28;34.29;93742.84;4947827;28;9046;-61
2022/04/09 07:39:30;;;;;;;;;;;;;;;24.31;34.34;93741.81;4947493;28;7370;-61
2022/04/09 07:42:28;;;;;;;;;;;;;;;24.34;34.32;93745.50;4953070;28;9092;-61
2022/04/09 07:45:01;;;;;;;;;;;;;;;24.32;34.08;93748.78;4937365;28;9154;-61
2022/04/09 07:47:34;;;;;;;;;;;;;;;24.35;34.60;93758.75;4949230;28;9235;-61
2022/04/09 07:50:05;;;;;;;;;;;;;;;24.33;34.92;93753.03;4946776;28;6989;-61
2022/04/09 07:53:01;;;;;;;;;;;;;;;24.35;34.77;93756.00;4930982;28;7070;-61
2022/04/09 07:55:28;;;;;;;;;;;;;;;24.37;34.95;93749.97;4892292;29;9338;-61
2022/04/09 07:57:56;;;;;;;;;;;;;;;24.37;34.87;93755.47;4915121;29;7277;-61
2022/04/09 08:00:23;;;;;;;;;;;;;;;24.41;34.88;93753.19;4897754;29;9062;-61
2022/04/09 08:02:49;;;;;;;;;;;;;;;24.41;35.22;93756.69;4905758;29;6992;-61
2022/04/09 08:05:18;;;;;;;;;;;;;;;24.44;35.44;93752.91;4898265;29;7520;-61
2022/04/09 08:07:47;;;;;;;;;;;;;;;24.41;35.30;93766.94;4898701;29;8810;-61
2022/04/09 08:10:14;;;;;;;;;;;;;;;24.44;35.82;93763.91;4898072;29;10095;-61
2022/04/09 08:13:10;;;;;;;;;;;;;;;24.47;35.62;93768.34;4913823;29;10311;-61
2022/04/09 08:15:46;;;;;;;;;;;;;;;24.48;35.29;93761.59;4863875;29;7600;-61
2022/04/09 08:18:22;;;;;;;;;;;;;;;24.50;35.39;93767.31;4854839;29;8989;-61
2022/04/09 08:20:53;;;;;;;;;;;;;;;24.52;34.79;93764.03;4842222;29;8862;-61
2022/04/09 08:23:20;;;;;;;;;;;;;;;24.52;35.93;93770.28;4853789;29;9132;-61
2022/04/09 08:25:48;;;;;;;;;;;;;;;24.52;35.92;93775.03;4859057;29;7214;-62
2022/04/09 08:28:14;;;;;;;;;;;;;;;24.50;35.97;93774.81;4848683;29;8278;-61
2022/04/09 08:30:41;;;;;;;;;;;;;;;24.56;35.33;93770.75;4852944;29;7029;-61
2022/04/09 08:33:07;;;;;;;;;;;;;;;24.53;35.88;93782.03;4885813;29;9067;-61
2022/04/09 08:35:34;;;;;;;;;;;;;;;24.55;35.54;93776.78;4864324;29;9075;-61
2022/04/09 08:38:01;;;;;;;;;;;;;;;24.55;35.21;93782.25;4889859;29;8783;-61
2022/04/09 08:40:27;;;;;;;;;;;;;;;24.53;35.64;93788.25;4870049;29;9467;-66
2022/04/09 08:42:55;;;;;;;;;;;;;;;24.56;35.56;93784.50;4865786;29;7160;-67
2022/04/09 08:45:22;;;;;;;;;;;;;;;24.57;35.50;93785.25;4870133;29;7055;-68
2022/04/09 08:47:58;;;;;;;;;;;;;;;24.58;35.04;93781.97;4892019;29;6997;-68
2022/04/09 08:50:35;;;;;;;;;;;;;;;24.60;35.48;93793.19;4886934;29;7081;-67
2022/04/09 08:53:08;;;;;;;;;;;;;;;24.61;35.69;93786.44;4941915;28;7860;-67
2022/04/09 08:55:36;;;;;;;;;;;;;;;24.62;35.40;93787.91;4951327;28;9116;-67
2022/04/09 08:58:25;;;;;;;;;;;;;;;24.63;35.36;93791.41;4937745;28;7290;-67
2022/04/09 09:00:51;;;;;;;;;;;;;;;24.62;35.37;93790.66;4930009;29;7248;-66
2022/04/09 09:03:17;;;;;;;;;;;;;;;24.64;35.08;93792.91;4945943;28;7830;-67
2022/04/09 09:05:52;;;;;;;;;;;;;;;24.63;35.83;93800.41;4946056;28;9142;-66
2022/04/09 09:08:55;;;;;;;;;;;;;;;24.64;35.16;93799.13;4938141;28;9216;-66
2022/04/09 09:11:26;;;;;;;;;;;;;;;24.63;35.16;93800.41;4936503;28;7059;-66
2022/04/09 09:13:57;;;;;;;;;;;;;;;24.60;35.23;93800.69;4954996;28;9138;-66
2022/04/09 09:16:36;;;;;;;;;;;;;;;24.60;35.21;93801.44;4929066;28;7069;-67
2022/04/09 09:19:15;;;;;;;;;;;;;;;24.62;35.02;93796.16;4938193;28;7502;-68
2022/04/09 09:22:05;;;;;;;;;;;;;;;24.63;35.64;93792.16;4934448;29;7286;-66
2022/04/09 09:24:36;;;;;;;;;;;;;;;24.64;35.41;93792.91;4935503;29;9078;-66
2022/04/09 09:27:17;;;;;;;;;;;;;;;24.64;35.34;93788.13;4926948;29;9199;-65
2022/04/09 09:29:56;;;;;;;;;;;;;;;24.63;35.52;93792.16;4930298;29;7510;-66
2022/04/09 09:35:51;;;;;;;;;;;;;;;24.67;35.50;93791.84;4947689;29;10129;-66
2022/04/09 09:38:29;;;;;;;;;;;;;;;24.65;35.23;93797.88;4934563;29;9488;-66
2022/04/09 09:40:59;;;;;;;;;;;;;;;24.62;35.30;93795.44;4944695;29;9074;-65
2022/04/09 09:43:26;;;;;;;;;;;;;;;24.63;35.75;93802.41;4928535;29;7351;-66
2022/04/09 09:45:55;;;;;;;;;;;;;;;24.64;35.56;93804.63;4935677;29;9132;-66
2022/04/09 09:48:22;;;;;;;;;;;;;;;24.61;35.32;93802.19;4934622;29;7752;-66
2022/04/09 09:50:48;;;;;;;;;;;;;;;24.61;35.40;93802.94;4938157;29;9719;-65
2022/04/09 09:53:17;;;;;;;;;;;;;;;24.62;35.53;93809.19;4950238;29;7222;-67
2022/04/09 09:55:44;;;;;;;;;;;;;;;24.60;35.88;93806.94;4928362;29;9619;-68
2022/04/09 09:58:21;;;;;;;;;;;;;;;24.60;35.48;93812.44;4932780;29;7060;-67
2022/04/09 10:00:49;;;;;;;;;;;;;;;24.62;35.84;93807.16;4953617;29;7375;-69
2022/04/09 10:03:16;;;;;;;;;;;;;;;24.61;35.94;93813.94;4939249;28;8960;-67
2022/04/09 10:05:42;;;;;;;;;;;;;;;24.60;35.49;93817.19;4942634;28;9106;-68
2022/04/09 10:08:09;;;;;;;;;;;;;;;24.59;35.87;93821.19;4957212;28;7982;-66
2022/04/09 10:10:48;;;;;;;;;;;;;;;24.61;35.56;93824.19;4941440;28;8869;-68
2022/04/09 10:13:24;;;;;;;;;;;;;;;24.57;35.95;93829.97;4949564;28;8089;-68
2022/04/09 10:16:05;;;;;;;;;;;;;;;24.60;35.89;93828.19;4957816;28;7101;-68
2022/04/09 10:18:33;;;;;;;;;;;;;;;24.60;35.70;93834.44;4957724;28;6984;-68
2022/04/09 10:21:02;;;;;;;;;;;;;;;24.57;35.84;93835.47;4940339;28;7250;-68
2022/04/09 10:23:33;;;;;;;;;;;;;;;24.55;35.94;93829.00;4953408;28;8861;-60
2022/04/09 10:26:08;;;;;;;;;;;;;;;24.61;35.70;93830.44;4937615;29;9110;-59
2022/04/09 10:28:42;;;;;;;;;;;;;;;24.63;36.09;93838.91;4946369;28;9231;-60
2022/04/09 10:31:23;;;;;;;;;;;;;;;24.62;35.92;93837.41;4953597;28;7058;-60
2022/04/09 10:33:56;;;;;;;;;;;;;;;24.62;35.49;93839.44;4937556;28;7247;-60
2022/04/09 10:36:51;;;;;;;;;;;;;;;24.64;35.62;93843.13;4940284;28;7364;-60
2022/04/09 10:39:39;;;;;;;;;;;;;;;24.64;35.95;93845.16;4956625;28;8743;-60
2022/04/09 10:42:07;;;;;;;;;;;;;;;24.62;35.98;93839.44;4944983;28;7090;-60
2022/04/09 10:44:44;;;;;;;;;;;;;;;24.63;35.51;93849.91;4945075;28;7040;-60
2022/04/09 10:47:15;;;;;;;;;;;;;;;24.65;36.58;93850.13;4936962;29;8830;-60
2022/04/09 10:50:05;;;;;;;;;;;;;;;24.66;36.07;93837.84;4933049;28;7387;-60
2022/04/09 10:52:47;;;;;;;;;;;;;;;24.65;35.49;93844.63;4904827;29;7419;-59
2022/04/09 10:55:20;;;;;;;;;;;;;;;24.63;35.91;93836.16;4917349;29;9446;-59
2022/04/09 10:57:48;;;;;;;;;;;;;;;24.62;35.65;93842.91;4914881;29;9035;-59
2022/04/09 11:00:31;;;;;;;;;;;;;;;24.64;35.44;93826.63;4916084;29;9112;-59
2022/04/09 11:03:29;;;;;;;;;;;;;;;24.66;36.11;93824.09;4911278;29;9355;-59
2022/04/09 11:06:44;;;;;;;;;;;;;;;24.69;36.45;93825.06;4845051;29;9110;-59
2022/04/09 11:09:12;;;;;;;;;;;;;;;24.67;35.88;93831.09;4785298;29;9057;-60
2022/04/09 11:11:43;;;;;;;;;;;;;;;24.67;36.10;93833.84;4803678;29;7565;-60
2022/04/09 11:14:09;;;;;;;;;;;;;;;24.73;36.43;93835.81;4784981;29;7248;-60
2022/04/09 11:16:37;;;;;;;;;;;;;;;24.73;36.06;93831.78;4803514;29;9145;-60
2022/04/09 11:19:03;;;;;;;;;;;;;;;24.73;36.61;93840.03;4805411;29;7509;-60
2022/04/09 11:21:31;;;;;;;;;;;;;;;24.75;36.37;93833.31;4786762;29;9109;-60
2022/04/09 11:24:04;;;;;;;;;;;;;;;24.76;37.02;93832.03;4785490;29;9590;-60
2022/04/09 11:26:30;;;;;;;;;;;;;;;24.78;36.22;93830.25;4815889;29;7179;-59
2022/04/09 11:28:56;;;;;;;;;;;;;;;24.76;36.98;93829.28;4812598;29;9749;-59
2022/04/09 11:31:25;;;;;;;;;;;;;;;24.77;36.81;93826.03;4844455;29;9327;-59
2022/04/09 11:34:07;;;;;;;;;;;;;;;24.77;37.01;93833.53;4847683;29;7130;-60
2022/04/09 11:36:51;;;;;;;;;;;;;;;24.81;37.18;93828.47;4836760;29;7205;-59
2022/04/09 11:39:37;;;;;;;;;;;;;;;24.80;37.18;93824.97;4839919;29;7267;-59
2022/04/09 11:42:03;;;;;;;;;;;;;;;24.82;37.14;93827.19;4853311;29;7271;-59
2022/04/09 11:44:29;;;;;;;;;;;;;;;24.84;37.25;93824.69;4838144;28;9313;-59
2022/04/09 11:46:55;;;;;;;;;;;;;;;24.82;37.16;93816.94;4930399;28;9156;-59
2022/04/09 11:49:30;;;;;;;;;;;;;;;24.85;36.93;93815.91;4941265;28;7551;-59
2022/04/09 11:51:59;;;;;;;;;;;;;;;24.82;37.29;93813.44;4939419;28;8739;-60
2022/04/09 11:54:34;;;;;;;;;;;;;;;24.87;36.75;93815.38;4948602;28;6987;-60
2022/04/09 11:57:01;;;;;;;;;;;;;;;24.91;36.85;93818.59;4931325;28;9140;-60
2022/04/09 11:59:31;;;;;;;;;;;;;;;24.94;36.85;93828.56;4933128;28;7275;-60
2022/04/09 12:01:59;;;;;;;;;;;;;;;24.90;37.18;93830.88;4935559;28;8819;-60
2022/04/09 12:04:36;;;;;;;;;;;;;;;24.93;37.27;93832.56;4953375;28;7322;-60
2022/04/09 12:07:04;;;;;;;;;;;;;;;24.93;37.08;93832.56;4933932;29;6991;-60
2022/04/09 12:09:39;;;;;;;;;;;;;;;24.90;36.92;93830.88;4933268;28;9442;-60
2022/04/09 12:12:18;;;;;;;;;;;;;;;24.93;36.72;93835.31;4936563;28;7081;-60
2022/04/09 12:15:41;;;;;;;;;;;;;;;24.92;37.05;93836.59;4932351;28;9061;-60
2022/04/09 12:18:25;;;;;;;;;;;;;;;24.87;37.44;93842.91;4851858;29;9173;-60
2022/04/09 12:21:31;;;;;;;;;;;;;;;24.90;37.49;93850.13;4841460;29;8912;-60
2022/04/09 12:24:05;;;;;;;;;;;;;;;24.86;37.13;93833.16;4841877;29;9553;-60
2022/04/09 12:26:58;;;;;;;;;;;;;;;24.88;37.23;93847.16;4846433;29;9128;-60
2022/04/09 12:29:24;;;;;;;;;;;;;;;24.90;36.97;93847.38;4854899;29;7762;-60
2022/04/09 12:32:12;;;;;;;;;;;;;;;24.92;36.92;93839.34;4855839;29;8996;-60
2022/04/09 12:35:14;;;;;;;;;;;;;;;24.96;36.94;93831.53;4843988;29;8158;-60
2022/04/09 12:37:52;;;;;;;;;;;;;;;24.98;36.57;93837.25;4844787;29;9501;-59
2022/04/09 12:40:25;;;;;;;;;;;;;;;24.96;36.92;93831.53;4838919;29;7353;-60
2022/04/09 12:42:52;;;;;;;;;;;;;;;24.95;37.28;93830.03;4840246;29;9139;-60
2022/04/09 12:45:22;;;;;;;;;;;;;;;24.96;37.57;93820.53;4835703;29;7343;-60
2022/04/09 12:48:08;;;;;;;;;;;;;;;24.95;36.93;93832.78;4836489;29;9108;-60
2022/04/09 12:50:35;;;;;;;;;;;;;;;24.95;37.32;93841.03;4906571;29;7476;-60
2022/04/09 12:53:18;;;;;;;;;;;;;;;24.94;37.43;93845.06;4916537;29;9264;-60
2022/04/09 12:55:52;;;;;;;;;;;;;;;24.94;36.86;93839.56;4895664;29;7297;-60
2022/04/09 12:58:18;;;;;;;;;;;;;;;24.93;37.13;93849.81;4889360;29;9420;-60
2022/04/09 13:00:44;;;;;;;;;;;;;;;24.90;36.89;93847.38;4887965;29;6972;-60
2022/04/09 13:03:13;;;;;;;;;;;;;;;24.92;37.47;93856.59;4904518;29;9466;-60
2022/04/09 13:05:49;;;;;;;;;;;;;;;24.91;37.29;93863.34;4918257;28;7215;-60
2022/04/09 13:08:15;;;;;;;;;;;;;;;24.87;37.50;93845.66;4928086;28;9512;-60
2022/04/09 13:10:57;;;;;;;;;;;;;;;24.84;36.73;93827.44;4936591;28;8354;-60
2022/04/09 13:13:24;;;;;;;;;;;;;;;24.91;37.12;93824.09;4935496;28;7271;-60
2022/04/09 13:15:51;;;;;;;;;;;;;;;24.94;37.10;93823.81;4936612;28;7541;-60
2022/04/09 13:18:17;;;;;;;;;;;;;;;24.97;36.88;93833.03;4935669;28;9141;-60
2022/04/09 13:20:45;;;;;;;;;;;;;;;24.94;37.27;93834.81;4936122;28;7354;-60
2022/04/09 13:23:12;;;;;;;;;;;;;;;24.95;37.32;93836.28;4929033;28;7104;-60
2022/04/09 13:25:42;;;;;;;;;;;;;;;24.97;37.46;93839.25;4946851;28;7212;-60
2022/04/09 13:28:13;;;;;;;;;;;;;;;24.99;36.96;93858.75;4929614;29;9530;-60
2022/04/09 13:30:41;;;;;;;;;;;;;;;24.96;37.10;93862.53;4946854;29;7144;-60